Saint George Island, Florida
Current Conditions -  °F | °C
As of 6:53 AM on Tuesday 21 Oct 2014 (Local Time) from KAAF Reporting Station
Few Clouds Few Clouds  
Wind Chill: 66°   Ceiling: Unl
Heat Index: 66°   Visibility: 10mi
Dew Point: 60°   Wind: 7mph
Humidity: 81%   Direction: 40°NE
Pressure: 29.97"   Gusts: NA
Location:  29.8852°N, 84.8748°W
Report Text: KAAF 211053Z AUTO 04006KT 10SM FEW025 19/16 A2997 RMK AO2 SLP148 T01890156 TSNO $
Loading
Personal Weather Stations






























Interactive Weather Map
Tropical Storm Tracking
New forecast layout! Learn more

10-Day Weather Forecast

Advertisements
Track Severe Weather on mobile